createdAt,value
2023-05-13T00:04:13.348Z,19.67
2023-05-13T00:10:55.702Z,19.13
2023-05-13T00:17:38.040Z,20.88
2023-05-13T00:24:20.627Z,20.55
2023-05-13T00:31:03.505Z,19.35
2023-05-13T00:37:45.692Z,20.73
2023-05-13T00:44:28.546Z,23.25
2023-05-13T00:51:11.014Z,19.88
2023-05-13T00:57:53.280Z,23.63
2023-05-13T01:05:05.535Z,23.05
2023-05-13T01:11:53.424Z,22.50
2023-05-13T01:18:47.812Z,24.90
2023-05-13T01:25:30.926Z,24.88
2023-05-13T01:32:14.127Z,19.40
2023-05-13T01:38:57.408Z,21.83
2023-05-13T01:45:42.639Z,24.27
2023-05-13T01:52:26.608Z,22.60
2023-05-13T01:59:11.035Z,23.08
2023-05-13T02:05:53.339Z,20.65
2023-05-13T02:12:35.809Z,22.17
2023-05-13T02:19:19.925Z,16.00
2023-05-13T02:26:04.291Z,18.77
2023-05-13T02:32:47.090Z,18.98
2023-05-13T02:39:29.389Z,25.50
2023-05-13T02:46:13.503Z,23.53
2023-05-13T02:52:55.874Z,19.98
2023-05-13T02:59:39.460Z,23.38
2023-05-13T03:06:21.872Z,18.17
2023-05-13T03:13:04.576Z,19.30
2023-05-13T03:19:46.814Z,20.98
2023-05-13T03:26:30.132Z,13.52
2023-05-13T03:33:12.615Z,16.25
2023-05-13T03:39:55.332Z,15.05
2023-05-13T03:46:37.841Z,17.50
2023-05-13T03:53:21.042Z,14.25
2023-05-13T04:00:04.873Z,14.98
2023-05-13T04:06:56.881Z,16.05
2023-05-13T04:13:40.848Z,21.20
2023-05-13T04:20:23.453Z,20.98
2023-05-13T04:27:06.539Z,19.35
2023-05-13T04:33:49.157Z,19.13
2023-05-13T04:40:31.610Z,15.25
2023-05-13T04:47:19.289Z,18.98
2023-05-13T04:54:01.636Z,16.95
2023-05-13T05:00:44.241Z,19.63
2023-05-13T05:07:26.556Z,16.23
2023-05-13T05:14:08.944Z,18.45
2023-05-13T05:20:51.250Z,17.45
2023-05-13T05:34:18.769Z,17.73
2023-05-13T05:41:01.297Z,13.45
2023-05-13T05:47:44.452Z,17.17
2023-05-13T05:54:28.517Z,14.15
2023-05-13T06:01:11.069Z,12.82
2023-05-13T06:07:53.644Z,28.55
2023-05-13T06:14:35.952Z,11.65
2023-05-13T06:21:18.197Z,10.77
2023-05-13T06:28:06.251Z,15.02
2023-05-13T06:34:48.622Z,13.10
2023-05-13T06:41:31.239Z,11.32
2023-05-13T06:48:24.203Z,15.70
2023-05-13T06:55:07.112Z,14.20
2023-05-13T07:01:49.344Z,13.55
2023-05-13T07:08:31.518Z,11.32
2023-05-13T07:15:13.660Z,17.08
2023-05-13T07:21:55.984Z,14.05
2023-05-13T07:28:38.695Z,10.32
2023-05-13T07:35:21.251Z,13.13
2023-05-13T07:42:04.036Z,9.43
2023-05-13T07:48:46.249Z,10.43
2023-05-13T07:55:28.476Z,10.57
2023-05-13T08:02:11.390Z,10.65
2023-05-13T08:08:53.677Z,12.30
2023-05-13T08:15:37.132Z,7.32
2023-05-13T08:22:19.835Z,7.43
2023-05-13T08:29:02.294Z,7.27
2023-05-13T08:35:44.937Z,7.63
2023-05-13T08:42:32.456Z,6.93
2023-05-13T08:49:14.859Z,8.25
2023-05-13T08:55:57.709Z,11.95
2023-05-13T09:02:41.929Z,7.65
2023-05-13T09:09:24.802Z,8.00
2023-05-13T09:16:07.342Z,8.02
2023-05-13T09:22:52.457Z,4.17
2023-05-13T09:29:34.874Z,6.85
2023-05-13T09:36:17.241Z,9.17
2023-05-13T09:42:59.480Z,12.03
2023-05-13T09:49:43.516Z,6.90
2023-05-13T09:56:30.975Z,5.60
2023-05-13T10:03:15.197Z,7.20
2023-05-13T10:10:04.405Z,7.55
2023-05-13T10:16:48.031Z,8.95
2023-05-13T10:23:32.581Z,7.97
2023-05-13T10:30:17.497Z,8.27
2023-05-13T10:37:15.700Z,9.50
2023-05-13T10:43:59.462Z,10.68
2023-05-13T10:51:01.563Z,13.70
2023-05-13T10:58:12.084Z,5.32
2023-05-13T11:05:01.225Z,12.52
2023-05-13T11:11:48.865Z,9.25
2023-05-13T11:18:31.606Z,9.20
2023-05-13T11:25:14.048Z,9.48
2023-05-13T11:32:00.484Z,7.60
2023-05-13T11:38:43.243Z,10.15
2023-05-13T11:45:27.744Z,13.80
2023-05-13T11:52:15.257Z,12.63
2023-05-13T11:59:14.802Z,8.35
2023-05-13T12:06:05.483Z,7.70
2023-05-13T12:12:47.982Z,7.32
2023-05-13T12:19:30.324Z,11.43
2023-05-13T12:26:12.568Z,8.93
2023-05-13T12:32:59.215Z,11.45
2023-05-13T12:39:43.214Z,8.73
2023-05-13T12:46:25.771Z,11.25
2023-05-13T12:53:08.077Z,8.27
2023-05-13T12:59:50.368Z,11.40
2023-05-13T13:06:32.718Z,11.02
2023-05-13T13:13:14.903Z,10.18
2023-05-13T13:19:57.468Z,11.88
2023-05-13T13:33:22.436Z,13.07
2023-05-13T13:40:05.505Z,14.73
2023-05-13T13:46:47.747Z,24.15
2023-05-13T13:53:29.989Z,8.75
2023-05-13T14:00:14.451Z,12.98
2023-05-13T14:06:57.875Z,13.15
2023-05-13T14:13:40.606Z,14.55
2023-05-13T14:20:24.923Z,11.43
2023-05-13T14:27:07.383Z,10.15
2023-05-13T14:33:50.353Z,9.02
2023-05-13T14:40:34.437Z,9.45
2023-05-13T14:47:16.727Z,5.35
2023-05-13T14:53:58.916Z,9.40
2023-05-13T15:00:41.693Z,9.70
2023-05-13T15:07:24.014Z,4.82
2023-05-13T15:14:06.257Z,13.82
2023-05-13T15:20:48.412Z,5.43
2023-05-13T15:27:30.576Z,8.77
2023-05-13T15:34:12.902Z,6.20
2023-05-13T15:40:55.138Z,7.97
2023-05-13T15:47:37.748Z,14.43
2023-05-13T15:54:20.094Z,12.20
2023-05-13T16:01:02.333Z,10.67
2023-05-13T16:07:44.723Z,12.83
2023-05-13T16:14:27.431Z,9.40
2023-05-13T16:21:09.627Z,8.57
2023-05-13T16:27:51.897Z,12.37
2023-05-13T16:34:34.263Z,6.57
2023-05-13T16:41:16.422Z,5.63
2023-05-13T16:47:58.665Z,12.00
2023-05-13T16:54:41.014Z,10.73
2023-05-13T17:01:23.471Z,10.30
2023-05-13T17:08:05.932Z,11.20
2023-05-13T17:14:48.162Z,12.47
2023-05-13T17:21:30.335Z,10.45
2023-05-13T17:28:12.593Z,16.67
2023-05-13T17:34:54.932Z,10.05
2023-05-13T17:41:37.110Z,7.78
2023-05-13T17:48:19.416Z,8.35
2023-05-13T17:55:01.759Z,13.20
2023-05-13T18:01:43.977Z,14.32
2023-05-13T18:08:26.357Z,13.30
2023-05-13T18:15:08.845Z,5.85
2023-05-13T18:21:51.036Z,8.93
2023-05-13T18:28:33.201Z,3.15
2023-05-13T18:35:16.121Z,4.30
2023-05-13T18:41:58.276Z,5.53
2023-05-13T18:48:40.611Z,6.97
2023-05-13T18:55:22.813Z,8.55
2023-05-13T19:02:05.531Z,8.10
2023-05-13T19:08:47.843Z,27.93
2023-05-13T19:15:30.013Z,26.17
2023-05-13T19:22:12.816Z,16.25
2023-05-13T19:28:55.018Z,8.38
2023-05-13T19:35:37.618Z,8.20
2023-05-13T19:42:20.412Z,8.35
2023-05-13T19:49:02.613Z,7.85
2023-05-13T19:55:45.368Z,10.85
2023-05-13T20:02:27.936Z,11.48
2023-05-13T20:09:12.015Z,11.80
2023-05-13T20:15:54.249Z,10.90
2023-05-13T20:22:36.525Z,8.85
2023-05-13T20:29:18.722Z,7.90
2023-05-13T20:36:01.957Z,9.25
2023-05-13T20:42:44.244Z,9.10
2023-05-13T20:49:26.900Z,8.88
2023-05-13T20:56:10.146Z,10.10
2023-05-13T21:02:53.266Z,8.23
2023-05-13T21:09:35.409Z,14.82
2023-05-13T21:16:17.646Z,11.00
2023-05-13T21:23:01.347Z,10.48
2023-05-13T21:29:43.574Z,15.75
2023-05-13T21:36:25.978Z,11.27
2023-05-13T21:43:08.067Z,10.45
2023-05-13T21:49:50.276Z,11.55
2023-05-13T21:56:32.891Z,10.38
2023-05-13T22:03:15.054Z,12.27
2023-05-13T22:09:57.709Z,14.65
2023-05-13T22:16:40.075Z,16.33
2023-05-13T22:23:22.248Z,17.50
2023-05-13T22:30:05.154Z,13.23
2023-05-13T22:36:47.599Z,24.58
2023-05-13T22:43:29.754Z,13.38
2023-05-13T22:50:12.888Z,17.23
2023-05-13T22:56:55.060Z,15.77
2023-05-13T23:03:37.298Z,13.45
2023-05-13T23:10:19.553Z,15.50
2023-05-13T23:17:01.806Z,14.48
2023-05-13T23:23:43.996Z,18.52
2023-05-13T23:30:26.185Z,14.48
2023-05-13T23:37:08.551Z,14.95
2023-05-13T23:43:50.714Z,14.25
2023-05-13T23:50:33.065Z,15.57
2023-05-13T23:57:15.227Z,14.00
